Terminal Aerodrome Forecast
Issued by NWS

Home | Current Version | Previous Version | Text Only | Print | Product List | Glossary On
Versions: 1 2 3 4 5 6 7 8 9 10 11 12 13 14 15
497
FTUS46 KMTR 272337
TAFSTS
TAF
KSTS 272337Z 2800/2824 15013KT P6SM SKC
     FM280300 14008KT P6SM SKC
     FM280800 00000KT P6SM OVC007
     FM281300 00000KT 4SM BR OVC003
     FM281630 VRB03KT P6SM SKC
     FM282000 16006KT P6SM SKC
     FM282200 15012KT P6SM SKC=

USA.gov is the U.S. government's official web portal to all federal, state and local government web resources and services.